createdAt,value
2022-08-05T00:00:26.077Z,99163.91
2022-08-05T00:02:07.757Z,99170.38
2022-08-05T00:03:45.696Z,99163.53
2022-08-05T00:06:03.279Z,99172.84
2022-08-05T00:07:21.707Z,99168.97
2022-08-05T00:09:12.746Z,99173.00
2022-08-05T00:10:48.245Z,99170.69
2022-08-05T00:12:22.547Z,99165.56
2022-08-05T00:13:56.237Z,99171.69
2022-08-05T00:15:55.799Z,99171.94
2022-08-05T00:17:23.075Z,99160.00
2022-08-05T00:18:58.052Z,99166.59
2022-08-05T00:20:31.441Z,99173.72
2022-08-05T00:22:05.062Z,99175.91
2022-08-05T00:23:45.973Z,99176.19
2022-08-05T00:25:26.404Z,99181.81
2022-08-05T00:27:18.777Z,99168.84
2022-08-05T00:28:51.719Z,99171.78
2022-08-05T00:30:31.918Z,99175.47
2022-08-05T00:32:12.883Z,99176.56
2022-08-05T00:34:56.664Z,99174.25
2022-08-05T00:35:48.006Z,99177.28
2022-08-05T00:37:53.235Z,99177.28
2022-08-05T00:39:28.757Z,99175.81
2022-08-05T00:41:15.078Z,99178.88
2022-08-05T00:42:50.010Z,99168.13
2022-08-05T00:44:30.436Z,99175.19
2022-08-05T00:46:04.676Z,99173.97
2022-08-05T00:47:57.169Z,99173.00
2022-08-05T00:49:32.337Z,99173.75
2022-08-05T00:51:08.935Z,99177.16
2022-08-05T00:52:59.735Z,99175.69
2022-08-05T00:54:34.457Z,99180.69
2022-08-05T00:56:08.386Z,99182.28
2022-08-05T00:57:55.308Z,99175.66
2022-08-05T00:59:34.479Z,99177.41
2022-08-05T01:01:42.157Z,99179.31
2022-08-05T01:03:22.173Z,99177.47
2022-08-05T01:04:56.565Z,99179.03
2022-08-05T01:06:32.557Z,99180.72
2022-08-05T01:08:40.698Z,99177.31
2022-08-05T01:10:02.954Z,99173.09
2022-08-05T01:11:44.652Z,99180.47
2022-08-05T01:13:27.115Z,99179.94
2022-08-05T01:15:05.416Z,99181.69
2022-08-05T01:16:49.169Z,99177.41
2022-08-05T01:18:27.490Z,99169.72
2022-08-05T01:20:15.075Z,99185.13
2022-08-05T01:22:01.293Z,99176.09
2022-08-05T01:23:54.487Z,99173.75
2022-08-05T01:26:04.746Z,99181.47
2022-08-05T01:28:16.802Z,99186.41
2022-08-05T01:29:54.559Z,99185.53
2022-08-05T01:31:31.038Z,99185.75
2022-08-05T01:33:08.572Z,99181.25
2022-08-05T01:34:48.875Z,99181.97
2022-08-05T01:36:28.124Z,99179.56
2022-08-05T01:38:05.143Z,99183.19
2022-08-05T01:39:47.347Z,99186.09
2022-08-05T01:41:25.583Z,99184.38
2022-08-05T01:43:03.582Z,99180.97
2022-08-05T01:44:38.595Z,99181.91
2022-08-05T01:46:16.107Z,99185.97
2022-08-05T01:47:54.513Z,99184.16
2022-08-05T01:50:00.253Z,99181.47
2022-08-05T01:51:25.311Z,99192.22
2022-08-05T01:53:05.736Z,99194.13
2022-08-05T01:54:46.522Z,99189.63
2022-08-05T01:58:11.867Z,99178.50
2022-08-05T01:58:18.327Z,99192.66
2022-08-05T02:00:06.012Z,99186.34
2022-08-05T02:01:49.135Z,99192.66
2022-08-05T02:03:31.516Z,99193.63
2022-08-05T02:05:11.622Z,99195.69
2022-08-05T02:06:46.076Z,99195.06
2022-08-05T02:08:31.173Z,99195.28
2022-08-05T02:10:07.995Z,99186.50
2022-08-05T02:11:48.015Z,99193.78
2022-08-05T02:13:36.440Z,99199.63
2022-08-05T02:15:33.174Z,99196.19
2022-08-05T02:17:17.090Z,99197.28
2022-08-05T02:19:13.012Z,99199.19
2022-08-05T02:20:52.035Z,99194.69
2022-08-05T02:22:31.348Z,99197.72
2022-08-05T02:24:10.332Z,99197.28
2022-08-05T02:25:50.205Z,99202.53
2022-08-05T02:27:29.873Z,99198.97
2022-08-05T02:29:26.042Z,99197.16
2022-08-05T02:31:22.909Z,99197.28
2022-08-05T02:32:59.351Z,99192.88
2022-08-05T02:34:35.026Z,99193.97
2022-08-05T02:36:15.606Z,99191.41
2022-08-05T02:37:54.072Z,99188.16
2022-08-05T02:39:32.743Z,99184.88
2022-08-05T02:41:17.116Z,99182.31
2022-08-05T02:42:54.204Z,99188.09
2022-08-05T02:44:30.427Z,99195.41
2022-08-05T02:46:04.260Z,99185.97
2022-08-05T02:48:07.325Z,99187.06
2022-08-05T02:49:36.479Z,99194.13
2022-08-05T02:51:11.203Z,99193.47
2022-08-05T02:52:48.547Z,99187.91
2022-08-05T02:54:36.566Z,99189.56
2022-08-05T02:56:15.757Z,99188.91
2022-08-05T02:58:12.050Z,99187.50
2022-08-05T02:59:52.057Z,99189.09
2022-08-05T03:01:27.264Z,99187.59
2022-08-05T03:03:03.105Z,99194.91
2022-08-05T03:04:44.998Z,99195.63
2022-08-05T03:06:54.362Z,99192.03
2022-08-05T03:08:15.047Z,99193.94
2022-08-05T03:09:51.947Z,99196.09
2022-08-05T03:11:54.843Z,99198.16
2022-08-05T03:13:21.501Z,99201.28
2022-08-05T03:15:02.546Z,99204.19
2022-08-05T03:16:40.233Z,99202.88
2022-08-05T03:18:13.722Z,99192.56
2022-08-05T03:19:50.843Z,99203.72
2022-08-05T03:21:24.053Z,99208.22
2022-08-05T03:23:02.968Z,99203.06
2022-08-05T03:24:37.792Z,99204.13
2022-08-05T03:26:31.436Z,99212.16
2022-08-05T03:28:08.289Z,99207.09
2022-08-05T03:29:45.520Z,99210.75
2022-08-05T03:31:55.587Z,99219.84
2022-08-05T03:33:42.201Z,99218.69
2022-08-05T03:35:24.419Z,99220.38
2022-08-05T03:36:58.033Z,99215.78
2022-08-05T03:38:33.200Z,99218.28
2022-08-05T03:40:11.959Z,99218.47
2022-08-05T03:41:47.045Z,99221.69
2022-08-05T03:44:09.466Z,99223.81
2022-08-05T03:45:21.553Z,99221.47
2022-08-05T03:46:57.734Z,99223.75
2022-08-05T03:48:35.505Z,99223.84
2022-08-05T03:50:10.220Z,99218.50
2022-08-05T03:52:39.069Z,99223.41
2022-08-05T03:55:54.023Z,99225.25
2022-08-05T03:56:06.027Z,99231.59
2022-08-05T03:57:44.431Z,99227.50
2022-08-05T03:59:21.157Z,99216.38
2022-08-05T04:01:00.999Z,99227.75
2022-08-05T04:02:52.277Z,99219.81
2022-08-05T04:04:34.126Z,99222.28
2022-08-05T04:06:08.692Z,99230.09
2022-08-05T04:07:57.151Z,99233.75
2022-08-05T04:09:36.661Z,99226.47
2022-08-05T04:11:10.234Z,99228.00
2022-08-05T04:14:18.112Z,99234.00
2022-08-05T04:16:03.025Z,99226.50
2022-08-05T04:17:56.647Z,99226.81
2022-08-05T04:19:31.427Z,99223.50
2022-08-05T04:21:05.725Z,99228.44
2022-08-05T04:22:38.009Z,99229.50
2022-08-05T04:24:19.767Z,99221.34
2022-08-05T04:26:00.742Z,99221.56
2022-08-05T04:27:43.776Z,99227.78
2022-08-05T04:29:28.034Z,99220.16
2022-08-05T04:31:08.278Z,99220.50
2022-08-05T04:32:46.076Z,99228.19
2022-08-05T04:34:33.972Z,99232.66
2022-08-05T04:36:15.912Z,99228.38
2022-08-05T04:38:06.755Z,99211.00
2022-08-05T04:39:40.376Z,99227.72
2022-08-05T04:41:15.044Z,99235.06
2022-08-05T04:42:48.424Z,99235.34
2022-08-05T04:44:21.607Z,99230.81
2022-08-05T04:46:03.217Z,99226.81
2022-08-05T04:47:47.137Z,99235.16
2022-08-05T04:49:24.649Z,99237.75
2022-08-05T04:51:12.586Z,99235.59
2022-08-05T04:52:47.023Z,99231.84
2022-08-05T04:54:27.093Z,99231.06
2022-08-05T04:56:33.049Z,99223.41
2022-08-05T04:57:54.747Z,99221.69
2022-08-05T04:59:38.807Z,99220.00
2022-08-05T05:01:12.655Z,99211.41
2022-08-05T05:02:46.090Z,99213.72
2022-08-05T05:04:19.419Z,99210.41
2022-08-05T05:06:40.752Z,99207.19
2022-08-05T05:07:53.063Z,99208.41
2022-08-05T05:09:30.261Z,99204.31
2022-08-05T05:11:06.325Z,99205.41
2022-08-05T05:12:39.595Z,99196.06
2022-08-05T05:14:16.062Z,99187.78
2022-08-05T05:15:57.177Z,99188.03
2022-08-05T05:17:56.314Z,99177.75
2022-08-05T05:19:37.187Z,99178.13
2022-08-05T05:21:19.055Z,99179.91
2022-08-05T05:22:52.446Z,99176.56
2022-08-05T05:24:42.939Z,99173.56
2022-08-05T05:26:19.104Z,99170.03
2022-08-05T05:27:54.054Z,99171.22
2022-08-05T05:30:03.221Z,99160.34
2022-08-05T05:31:22.983Z,99169.91
2022-08-05T05:33:00.710Z,99178.19
2022-08-05T05:34:36.686Z,99167.50
2022-08-05T05:36:10.565Z,99162.91
2022-08-05T05:37:59.413Z,99170.22
2022-08-05T05:39:38.507Z,99161.13
2022-08-05T05:41:16.417Z,99171.53
2022-08-05T05:42:52.652Z,99170.13
2022-08-05T05:44:36.528Z,99167.03
2022-08-05T05:46:17.520Z,99169.03
2022-08-05T05:48:05.767Z,99172.50
2022-08-05T05:49:41.101Z,99167.34
2022-08-05T05:51:20.122Z,99167.56
2022-08-05T05:52:55.419Z,99167.34
2022-08-05T05:54:50.097Z,99164.50
2022-08-05T05:56:31.347Z,99162.50
2022-08-05T05:58:06.862Z,99169.16
2022-08-05T05:59:42.543Z,99166.38
2022-08-05T06:01:16.722Z,99166.56
2022-08-05T06:02:50.188Z,99172.25
2022-08-05T06:04:23.506Z,99164.91
2022-08-05T06:05:56.945Z,99172.03
2022-08-05T06:07:41.529Z,99175.25
2022-08-05T06:09:24.631Z,99168.84
2022-08-05T06:11:00.777Z,99173.09
2022-08-05T06:12:35.361Z,99172.25
2022-08-05T06:14:15.399Z,99162.22
2022-08-05T06:16:29.831Z,99164.28
2022-08-05T06:17:54.671Z,99169.19
2022-08-05T06:19:34.865Z,99171.72
2022-08-05T06:21:18.574Z,99169.72
2022-08-05T06:22:52.180Z,99169.31
2022-08-05T06:24:27.386Z,99167.97
2022-08-05T06:26:20.569Z,99167.31
2022-08-05T06:28:12.821Z,99168.44
2022-08-05T06:30:04.414Z,99168.81
2022-08-05T06:31:39.606Z,99167.38
2022-08-05T06:33:19.476Z,99170.84
2022-08-05T06:35:15.526Z,99166.88
2022-08-05T06:37:00.762Z,99163.91
2022-08-05T06:38:35.768Z,99169.38
2022-08-05T06:40:13.688Z,99160.63
2022-08-05T06:41:47.077Z,99167.56
2022-08-05T06:43:57.999Z,99164.19
2022-08-05T06:45:20.667Z,99168.53
2022-08-05T06:46:55.024Z,99169.78
2022-08-05T06:48:56.454Z,99167.56
2022-08-05T06:50:25.258Z,99170.13
2022-08-05T06:51:59.024Z,99163.84
2022-08-05T06:53:32.678Z,99159.56
2022-08-05T06:55:14.047Z,99160.78
2022-08-05T06:56:54.724Z,99162.34
2022-08-05T06:58:42.198Z,99157.72
2022-08-05T07:00:22.289Z,99154.59
2022-08-05T07:01:58.715Z,99148.34
2022-08-05T07:03:33.208Z,99159.81
2022-08-05T07:05:15.401Z,99157.31
2022-08-05T07:06:52.433Z,99157.59
2022-08-05T07:08:26.410Z,99152.28
2022-08-05T07:09:59.751Z,99153.38
2022-08-05T07:11:39.976Z,99154.59
2022-08-05T07:13:57.007Z,99147.78
2022-08-05T07:16:01.545Z,99162.78
2022-08-05T07:18:01.692Z,99157.53
2022-08-05T07:21:25.979Z,99148.97
2022-08-05T07:22:59.351Z,99156.31
2022-08-05T07:24:35.026Z,99150.31
2022-08-05T07:26:22.459Z,99150.75
2022-08-05T07:28:03.771Z,99155.41
2022-08-05T07:30:24.748Z,99156.91
2022-08-05T07:31:53.971Z,99154.00
2022-08-05T07:33:36.777Z,99141.22
2022-08-05T07:36:02.308Z,99147.56
2022-08-05T07:37:05.438Z,99141.63
2022-08-05T07:38:44.204Z,99137.19
2022-08-05T07:40:31.693Z,99137.78
2022-08-05T07:42:15.269Z,99133.19
2022-08-05T07:43:51.468Z,99141.22
2022-08-05T07:45:56.404Z,99134.03
2022-08-05T07:47:18.551Z,99136.63
2022-08-05T07:49:05.833Z,99132.84
2022-08-05T07:50:41.217Z,99125.84
2022-08-05T07:52:15.446Z,99130.66
2022-08-05T07:53:50.388Z,99137.72
2022-08-05T07:55:44.557Z,99123.09
2022-08-05T07:57:41.608Z,99133.09
2022-08-05T07:59:12.969Z,99131.72
2022-08-05T08:00:48.551Z,99134.03
2022-08-05T08:02:26.519Z,99125.66
2022-08-05T08:04:00.320Z,99138.19
2022-08-05T08:05:39.503Z,99128.97
2022-08-05T08:07:13.903Z,99133.66
2022-08-05T08:08:48.619Z,99129.75
2022-08-05T08:10:22.920Z,99132.63
2022-08-05T08:12:06.186Z,99126.88
2022-08-05T08:14:00.479Z,99131.84
2022-08-05T08:16:33.192Z,99132.28
2022-08-05T08:17:29.505Z,99123.38
2022-08-05T08:19:03.986Z,99128.44
2022-08-05T08:21:00.496Z,99127.44
2022-08-05T08:22:34.327Z,99122.97
2022-08-05T08:24:13.734Z,99119.25
2022-08-05T08:26:00.048Z,99127.81
2022-08-05T08:27:40.214Z,99116.03
2022-08-05T08:29:29.367Z,99123.09
2022-08-05T08:31:15.117Z,99110.13
2022-08-05T08:32:51.161Z,99109.38
2022-08-05T08:34:30.157Z,99112.13
2022-08-05T08:36:38.989Z,99105.91
2022-08-05T08:38:00.731Z,99103.53
2022-08-05T08:39:37.519Z,99104.75
2022-08-05T08:41:13.986Z,99106.25
2022-08-05T08:42:52.715Z,99101.72
2022-08-05T08:45:20.485Z,99097.06
2022-08-05T08:46:28.675Z,99091.63
2022-08-05T08:48:10.586Z,99089.56
2022-08-05T08:50:14.190Z,99095.97
2022-08-05T08:52:03.359Z,99095.03
2022-08-05T08:53:45.034Z,99079.03
2022-08-05T08:56:02.205Z,99097.03
2022-08-05T08:57:13.446Z,99081.81
2022-08-05T08:58:48.015Z,99082.50
2022-08-05T09:00:22.572Z,99082.31
2022-08-05T09:02:01.157Z,99082.50
2022-08-05T09:03:44.938Z,99079.31
2022-08-05T09:05:18.820Z,99075.63
2022-08-05T09:07:28.239Z,99071.06
2022-08-05T09:09:03.131Z,99080.66
2022-08-05T09:10:37.226Z,99072.28
2022-08-05T09:12:20.507Z,99068.44
2022-08-05T09:14:54.111Z,99064.28
2022-08-05T09:15:55.297Z,99057.59
2022-08-05T09:17:42.238Z,99059.53
2022-08-05T09:19:16.646Z,99064.91
2022-08-05T09:20:51.359Z,99053.78
2022-08-05T09:22:31.063Z,99058.66
2022-08-05T09:24:10.171Z,99058.50
2022-08-05T09:26:03.111Z,99055.41
2022-08-05T09:28:05.340Z,99061.91
2022-08-05T09:29:52.135Z,99054.59
2022-08-05T09:32:40.656Z,99048.19
2022-08-05T09:33:20.244Z,99053.88
2022-08-05T09:34:58.642Z,99047.50
2022-08-05T09:36:45.894Z,99042.63
2022-08-05T09:38:29.795Z,99038.59
2022-08-05T09:40:05.328Z,99035.97
2022-08-05T09:41:57.389Z,99039.53
2022-08-05T09:43:41.073Z,99036.66
2022-08-05T09:46:04.875Z,99038.94
2022-08-05T09:47:15.420Z,99032.09
2022-08-05T09:49:03.703Z,99028.06
2022-08-05T09:50:44.634Z,99036.06
2022-08-05T09:52:23.665Z,99035.09
2022-08-05T09:54:00.546Z,99036.75
2022-08-05T09:55:57.651Z,99025.44
2022-08-05T09:57:35.486Z,99032.19
2022-08-05T09:59:16.954Z,99025.53
2022-08-05T10:00:55.565Z,99024.84
2022-08-05T10:02:37.350Z,99019.78
2022-08-05T10:04:17.513Z,99023.59
2022-08-05T10:06:14.596Z,99029.19
2022-08-05T10:08:37.008Z,99028.59
2022-08-05T10:10:04.192Z,99020.00
2022-08-05T10:11:49.623Z,99022.69
2022-08-05T10:13:43.936Z,99028.84
2022-08-05T10:15:27.445Z,99030.09
2022-08-05T10:17:37.311Z,99020.06
2022-08-05T10:19:11.841Z,99020.13
2022-08-05T10:20:48.755Z,99016.34
2022-08-05T10:22:29.856Z,99019.72
2022-08-05T10:24:07.560Z,99008.50
2022-08-05T10:25:44.389Z,99017.41
2022-08-05T10:27:18.006Z,99009.31
2022-08-05T10:28:59.783Z,99003.16
2022-08-05T10:32:48.910Z,99002.16
2022-08-05T10:32:54.350Z,98999.69
2022-08-05T10:34:25.663Z,98998.00
2022-08-05T10:36:03.953Z,98999.81
2022-08-05T10:37:44.764Z,98994.50
2022-08-05T10:39:25.132Z,98998.25
2022-08-05T10:41:23.303Z,98995.28
2022-08-05T10:43:04.569Z,98998.25
2022-08-05T10:44:39.103Z,99006.97
2022-08-05T10:46:17.056Z,98997.06
2022-08-05T10:48:29.835Z,98999.13
2022-08-05T10:50:32.862Z,98990.72
2022-08-05T10:52:00.219Z,98997.00
2022-08-05T10:53:45.589Z,98978.03
2022-08-05T10:55:19.518Z,98987.78
2022-08-05T10:56:56.039Z,98978.41
2022-08-05T10:58:41.043Z,98985.13
2022-08-05T11:00:23.905Z,98977.56
2022-08-05T11:02:38.264Z,98970.81
2022-08-05T11:04:12.120Z,98975.03
2022-08-05T11:06:05.020Z,98962.72
2022-08-05T11:08:01.287Z,98968.91
2022-08-05T11:09:48.525Z,98968.91
2022-08-05T11:11:44.513Z,98966.94
2022-08-05T11:13:55.027Z,98973.19
2022-08-05T11:15:59.327Z,98969.22
2022-08-05T11:17:59.716Z,98965.47
2022-08-05T11:20:16.682Z,98965.47
2022-08-05T11:21:48.908Z,98958.94
2022-08-05T11:24:04.076Z,98959.09
2022-08-05T11:26:04.310Z,98958.28
2022-08-05T11:27:51.014Z,98948.03
2022-08-05T11:29:37.424Z,98953.28
2022-08-05T11:31:57.685Z,98947.09
2022-08-05T11:33:43.980Z,98946.72
2022-08-05T11:36:07.477Z,98944.56
2022-08-05T11:38:29.692Z,98947.81
2022-08-05T11:40:03.157Z,98935.56
2022-08-05T11:42:00.939Z,98939.34
2022-08-05T11:43:58.439Z,98942.78
2022-08-05T11:46:27.419Z,98937.66
2022-08-05T11:47:49.437Z,98932.59
2022-08-05T11:49:18.466Z,98932.44
2022-08-05T11:50:52.044Z,98936.44
2022-08-05T11:52:29.398Z,98921.22
2022-08-05T11:54:03.328Z,98927.88
2022-08-05T11:55:38.165Z,98928.06
2022-08-05T11:57:26.101Z,98922.13
2022-08-05T11:59:00.661Z,98922.13
2022-08-05T12:00:38.496Z,98925.00
2022-08-05T12:02:29.936Z,98929.97
2022-08-05T12:04:04.630Z,98929.56
2022-08-05T12:05:39.774Z,98923.22
2022-08-05T12:07:18.736Z,98926.03
2022-08-05T12:09:19.918Z,98917.91
2022-08-05T12:10:59.461Z,98918.84
2022-08-05T12:12:39.487Z,98920.63
2022-08-05T12:14:38.382Z,98915.56
2022-08-05T12:16:20.060Z,98914.22
2022-08-05T12:18:10.604Z,98909.31
2022-08-05T12:20:26.352Z,98910.75
2022-08-05T12:21:46.992Z,98908.22
2022-08-05T12:23:22.026Z,98903.13
2022-08-05T12:24:57.562Z,98906.53
2022-08-05T12:26:36.346Z,98896.84
2022-08-05T12:28:09.714Z,98907.34
2022-08-05T12:30:00.450Z,98912.97
2022-08-05T12:31:45.919Z,98901.28
2022-08-05T12:33:27.900Z,98907.53
2022-08-05T12:35:10.736Z,98911.59
2022-08-05T12:36:43.924Z,98902.69
2022-08-05T12:38:17.358Z,98905.81
2022-08-05T12:40:03.673Z,98908.56
2022-08-05T12:41:46.644Z,98906.44
2022-08-05T12:43:21.015Z,98904.81
2022-08-05T12:45:03.060Z,98906.53
2022-08-05T12:46:45.515Z,98907.41
2022-08-05T12:48:27.409Z,98900.88
2022-08-05T12:50:15.849Z,98896.25
2022-08-05T12:52:12.686Z,98885.53
2022-08-05T12:53:44.084Z,98887.28
2022-08-05T12:55:32.879Z,98885.53
2022-08-05T12:57:10.580Z,98881.28
2022-08-05T12:58:51.954Z,98888.84
2022-08-05T13:02:00.629Z,98878.88
2022-08-05T13:02:27.506Z,98890.53
2022-08-05T13:04:07.481Z,98881.25
2022-08-05T13:05:43.158Z,98887.19
2022-08-05T13:07:41.346Z,98882.09
2022-08-05T13:09:14.204Z,98874.13
2022-08-05T13:11:02.307Z,98885.84
2022-08-05T13:12:50.718Z,98877.69
2022-08-05T13:14:36.072Z,98883.88
2022-08-05T13:16:15.429Z,98878.66
2022-08-05T13:17:55.794Z,98875.28
2022-08-05T13:19:52.149Z,98875.66
2022-08-05T13:21:28.290Z,98871.41
2022-08-05T13:23:11.081Z,98865.91
2022-08-05T13:24:57.576Z,98868.47
2022-08-05T13:26:31.653Z,98865.94
2022-08-05T13:28:06.837Z,98859.69
2022-08-05T13:30:31.534Z,98861.78
2022-08-05T13:32:03.979Z,98858.44
2022-08-05T13:34:24.127Z,98861.34
2022-08-05T13:35:42.794Z,98866.34
2022-08-05T13:37:34.304Z,98865.47
2022-08-05T13:39:24.738Z,98857.44
2022-08-05T13:41:03.303Z,98857.84
2022-08-05T13:42:37.037Z,98854.88
2022-08-05T13:44:11.745Z,98838.16
2022-08-05T13:45:43.938Z,98849.53
2022-08-05T13:47:35.580Z,98846.34
2022-08-05T13:49:11.989Z,98842.38
2022-08-05T13:50:45.409Z,98839.19
2022-08-05T13:52:29.224Z,98844.34
2022-08-05T13:54:02.825Z,98851.19
2022-08-05T13:55:40.785Z,98845.25
2022-08-05T13:57:15.008Z,98849.28
2022-08-05T13:58:53.395Z,98850.75
2022-08-05T14:00:28.497Z,98840.13
2022-08-05T14:02:03.588Z,98836.28
2022-08-05T14:03:36.812Z,98842.53
2022-08-05T14:05:11.987Z,98852.72
2022-08-05T14:06:48.890Z,98848.47
2022-08-05T14:08:42.545Z,98841.22
2022-08-05T14:10:28.593Z,98849.84
2022-08-05T14:12:18.165Z,98851.81
2022-08-05T14:13:58.355Z,98847.22
2022-08-05T14:16:08.602Z,98842.84
2022-08-05T14:17:26.744Z,98841.38
2022-08-05T14:19:04.401Z,98847.50
2022-08-05T14:20:36.993Z,98843.69
2022-08-05T14:22:12.137Z,98843.44
2022-08-05T14:23:45.538Z,98842.16
2022-08-05T14:25:22.475Z,98843.44
2022-08-05T14:27:16.818Z,98838.09
2022-08-05T14:28:52.149Z,98840.38
2022-08-05T14:30:27.979Z,98842.25
2022-08-05T14:32:14.268Z,98830.03
2022-08-05T14:34:00.073Z,98837.84
2022-08-05T14:35:37.519Z,98831.72
2022-08-05T14:37:45.354Z,98833.81
2022-08-05T14:39:23.231Z,98811.81
2022-08-05T14:40:57.613Z,98826.56
2022-08-05T14:42:31.205Z,98829.66
2022-08-05T14:44:19.894Z,98821.94
2022-08-05T14:45:54.107Z,98822.22
2022-08-05T14:48:05.486Z,98817.16
2022-08-05T14:49:22.387Z,98818.16
2022-08-05T14:50:55.618Z,98815.13
2022-08-05T14:52:51.905Z,98824.97
2022-08-05T14:54:27.841Z,98812.41
2022-08-05T14:56:03.489Z,98820.09
2022-08-05T14:57:54.579Z,98816.28
2022-08-05T14:59:35.735Z,98812.13
2022-08-05T15:01:15.534Z,98818.50
2022-08-05T15:02:51.609Z,98818.94
2022-08-05T15:04:28.876Z,98810.31
2022-08-05T15:06:07.673Z,98816.63
2022-08-05T15:08:08.621Z,98811.81
2022-08-05T15:09:52.750Z,98812.25
2022-08-05T15:11:50.894Z,98806.75
2022-08-05T15:13:21.244Z,98803.38
2022-08-05T15:15:02.068Z,98811.03
2022-08-05T15:16:35.481Z,98804.72
2022-08-05T15:18:10.321Z,98806.59
2022-08-05T15:19:48.972Z,98799.66
2022-08-05T15:21:22.531Z,98806.44
2022-08-05T15:22:57.661Z,98805.63
2022-08-05T15:24:31.189Z,98806.91
2022-08-05T15:26:04.423Z,98805.66
2022-08-05T15:27:37.921Z,98793.00
2022-08-05T15:29:16.117Z,98812.84
2022-08-05T15:30:52.990Z,98796.81
2022-08-05T15:32:28.890Z,98795.13
2022-08-05T15:34:18.635Z,98796.81
2022-08-05T15:35:57.511Z,98796.38
2022-08-05T15:38:33.703Z,98793.41
2022-08-05T15:41:04.037Z,98788.34
2022-08-05T15:41:23.330Z,98791.34
2022-08-05T15:43:01.612Z,98794.28
2022-08-05T15:44:42.908Z,98784.16
2022-08-05T15:46:16.228Z,98787.13
2022-08-05T15:47:54.335Z,98790.94
2022-08-05T15:49:55.235Z,98787.56
2022-08-05T15:52:13.268Z,98786.09
2022-08-05T15:53:21.491Z,98780.81
2022-08-05T15:54:54.846Z,98787.59
2022-08-05T15:56:30.693Z,98783.38
2022-08-05T15:58:04.149Z,98790.97
2022-08-05T15:59:38.149Z,98785.91
2022-08-05T16:01:17.346Z,98784.66
2022-08-05T16:02:51.310Z,98782.97
2022-08-05T16:04:26.040Z,98787.22
2022-08-05T16:06:00.666Z,98775.84
2022-08-05T16:07:34.578Z,98788.50
2022-08-05T16:09:09.764Z,98787.66
2022-08-05T16:10:43.121Z,98786.81
2022-08-05T16:12:17.277Z,98788.50
2022-08-05T16:13:53.130Z,98785.75
2022-08-05T16:15:32.522Z,98785.13
2022-08-05T16:17:07.204Z,98786.78
2022-08-05T16:18:52.542Z,98782.56
2022-08-05T16:20:27.937Z,98787.66
2022-08-05T16:22:03.663Z,98782.59
2022-08-05T16:23:53.658Z,98778.38
2022-08-05T16:25:34.070Z,98785.16
2022-08-05T16:27:08.336Z,98780.72
2022-08-05T16:28:41.616Z,98777.34
2022-08-05T16:30:25.760Z,98782.19
2022-08-05T16:32:00.405Z,98768.69
2022-08-05T16:33:41.390Z,98774.59
2022-08-05T16:35:15.991Z,98770.81
2022-08-05T16:36:51.566Z,98771.88
2022-08-05T16:38:28.072Z,98780.09
2022-08-05T16:40:05.190Z,98774.00
2022-08-05T16:42:14.379Z,98772.75
2022-08-05T16:43:36.581Z,98775.91
2022-08-05T16:46:05.379Z,98773.59
2022-08-05T16:47:03.900Z,98777.56
2022-08-05T16:48:38.566Z,98776.72
2022-08-05T16:50:12.979Z,98786.84
2022-08-05T16:51:51.084Z,98780.94
2022-08-05T16:53:32.389Z,98779.69
2022-08-05T16:55:19.738Z,98777.16
2022-08-05T16:56:53.752Z,98779.25
2022-08-05T16:58:27.037Z,98781.38
2022-08-05T17:00:07.708Z,98787.28
2022-08-05T17:01:54.184Z,98791.50
2022-08-05T17:03:29.348Z,98793.19
2022-08-05T17:05:04.723Z,98787.25
2022-08-05T17:06:41.847Z,98788.13
2022-08-05T17:08:15.490Z,98794.00
2022-08-05T17:10:11.185Z,98788.69
2022-08-05T17:11:48.824Z,98796.06
2022-08-05T17:13:37.887Z,98784.88
2022-08-05T17:15:15.564Z,98789.28
2022-08-05T17:16:49.121Z,98792.00
2022-08-05T17:18:27.500Z,98793.88
2022-08-05T17:20:00.811Z,98795.56
2022-08-05T17:21:36.608Z,98791.75
2022-08-05T17:23:10.260Z,98789.16
2022-08-05T17:25:22.026Z,98792.91
2022-08-05T17:26:59.794Z,98803.44
2022-08-05T17:28:33.391Z,98794.13
2022-08-05T17:30:18.497Z,98797.47
2022-08-05T17:31:58.393Z,98792.84
2022-08-05T17:33:38.991Z,98789.81
2022-08-05T17:35:22.377Z,98790.97
2022-08-05T17:36:55.672Z,98793.88
2022-08-05T17:38:29.190Z,98795.50
2022-08-05T17:40:02.476Z,98795.44
2022-08-05T17:42:17.669Z,98803.75
2022-08-05T17:43:46.826Z,98807.84
2022-08-05T17:45:22.387Z,98809.06
2022-08-05T17:46:56.228Z,98817.84
2022-08-05T17:48:30.778Z,98807.28
2022-08-05T17:50:10.697Z,98816.94
2022-08-05T17:51:44.751Z,98819.41
2022-08-05T17:53:19.605Z,98825.19
2022-08-05T17:54:54.277Z,98816.94
2022-08-05T17:56:28.715Z,98817.94
2022-08-05T17:58:02.264Z,98817.81
2022-08-05T17:59:38.696Z,98815.19
2022-08-05T18:01:12.031Z,98819.28
2022-08-05T18:02:46.798Z,98815.72
2022-08-05T18:04:21.240Z,98828.91
2022-08-05T18:05:55.154Z,98825.44
2022-08-05T18:07:41.139Z,98829.34
2022-08-05T18:09:15.307Z,98819.25
2022-08-05T18:10:47.836Z,98833.00
2022-08-05T18:12:24.064Z,98827.25
2022-08-05T18:13:59.745Z,98832.06
2022-08-05T18:15:35.222Z,98826.03
2022-08-05T18:18:01.075Z,98840.72
2022-08-05T18:19:07.838Z,98830.00
2022-08-05T18:20:41.176Z,98835.75
2022-08-05T18:22:20.200Z,98841.38
2022-08-05T18:23:57.509Z,98834.13
2022-08-05T18:25:33.071Z,98844.44
2022-08-05T18:27:18.085Z,98849.78
2022-08-05T18:28:52.590Z,98842.19
2022-08-05T18:30:26.258Z,98847.31
2022-08-05T18:32:01.359Z,98848.72
2022-08-05T18:33:46.593Z,98849.47
2022-08-05T18:35:21.147Z,98851.91
2022-08-05T18:37:34.581Z,98854.69
2022-08-05T18:39:09.759Z,98853.38
2022-08-05T18:41:55.879Z,98856.47
2022-08-05T18:42:56.742Z,98854.47
2022-08-05T18:44:34.727Z,98861.13
2022-08-05T18:46:09.659Z,98853.50
2022-08-05T18:47:44.580Z,98857.09
2022-08-05T18:49:44.560Z,98858.00
2022-08-05T18:52:04.811Z,98862.84
2022-08-05T18:53:45.748Z,98869.06
2022-08-05T18:55:23.677Z,98863.00
2022-08-05T18:56:57.466Z,98870.50
2022-08-05T18:58:36.176Z,98872.88
2022-08-05T19:00:19.943Z,98873.59
2022-08-05T19:01:58.473Z,98871.28
2022-08-05T19:03:53.234Z,98874.69
2022-08-05T19:06:06.222Z,98872.31
2022-08-05T19:07:20.820Z,98872.31
2022-08-05T19:08:54.218Z,98874.38
2022-08-05T19:10:28.379Z,98874.72
2022-08-05T19:12:02.305Z,98872.53
2022-08-05T19:13:36.960Z,98878.19
2022-08-05T19:15:57.717Z,98876.16
2022-08-05T19:17:06.413Z,98866.47
2022-08-05T19:18:42.813Z,98867.69
2022-08-05T19:20:16.097Z,98871.44
2022-08-05T19:21:51.642Z,98877.25
2022-08-05T19:24:06.996Z,98875.91
2022-08-05T19:25:21.632Z,98875.75
2022-08-05T19:27:04.383Z,98867.59
2022-08-05T19:28:41.685Z,98880.50
2022-08-05T19:30:16.251Z,98876.56
2022-08-05T19:31:54.288Z,98873.84
2022-08-05T19:33:35.364Z,98874.50
2022-08-05T19:35:11.790Z,98876.22
2022-08-05T19:36:48.861Z,98879.78
2022-08-05T19:38:26.714Z,98870.78
2022-08-05T19:40:00.639Z,98874.53
2022-08-05T19:42:07.132Z,98874.34
2022-08-05T19:44:05.507Z,98891.66
2022-08-05T19:45:21.547Z,98883.84
2022-08-05T19:46:58.941Z,98880.09
2022-08-05T19:48:32.876Z,98890.94
2022-08-05T19:50:10.629Z,98890.69
2022-08-05T19:52:04.362Z,98890.19
2022-08-05T19:54:04.866Z,98889.97
2022-08-05T19:56:15.093Z,98882.81
2022-08-05T19:57:47.388Z,98886.16
2022-08-05T20:00:00.881Z,98883.41
2022-08-05T20:01:14.966Z,98882.97
2022-08-05T20:02:49.012Z,98876.53